Time;durP1;ratioP1;P1;durP2;ratioP2;P2;SDS_P1;SDS_P2;PMS_P1;PMS_P2;Temp;Humidity;BMP_temperature;BMP_pressure;BME280_temperature;BME280_humidity;BME280_pressure;Samples;Min_cycle;Max_cycle;Signal;HPM_P1;HPM_P2
2021/09/13 00:00:50;;;;;;;;;26.20;24.60;;;;;23.67;53.24;98746.97;6115102;28;97114;-62
2021/09/13 00:03:55;;;;;;;;;25.60;23.60;;;;;23.49;53.58;98748.78;6115400;28;96983;-62
2021/09/13 00:07:00;;;;;;;;;23.60;23.20;;;;;23.50;53.24;98750.41;6116188;28;97568;-63
2021/09/13 00:10:04;;;;;;;;;27.40;25.00;;;;;23.42;53.54;98747.53;6115599;28;97135;-62
2021/09/13 00:13:07;;;;;;;;;25.20;24.00;;;;;23.35;53.45;98756.22;6115228;28;97514;-63
2021/09/13 00:16:10;;;;;;;;;26.00;25.00;;;;;23.33;53.75;98740.00;6114618;28;98472;-63
2021/09/13 00:19:14;;;;;;;;;26.40;24.40;;;;;23.20;53.90;98732.59;6093663;28;99585;-61
2021/09/13 00:22:20;;;;;;;;;28.00;27.00;;;;;23.27;53.75;98749.50;6116089;28;97418;-62
2021/09/13 00:25:25;;;;;;;;;26.50;25.50;;;;;23.28;53.66;98745.63;6115438;28;96955;-62
2021/09/13 00:28:28;;;;;;;;;23.60;22.00;;;;;23.26;54.06;98745.09;6114692;28;96565;-62
2021/09/13 00:31:38;;;;;;;;;29.40;26.00;;;;;23.27;54.46;98746.75;6114267;28;97295;-61
2021/09/13 00:34:44;;;;;;;;;25.50;24.00;;;;;23.28;54.35;98750.31;6115945;28;97176;-62
2021/09/13 00:37:49;;;;;;;;;26.20;25.40;;;;;23.26;54.58;98758.06;6114681;28;96863;-62
2021/09/13 00:40:53;;;;;;;;;29.25;26.25;;;;;23.25;54.47;98757.25;6115056;28;97409;-62
2021/09/13 00:43:59;;;;;;;;;26.00;25.00;;;;;23.26;54.57;98755.31;6114022;28;97022;-61
2021/09/13 00:47:03;;;;;;;;;26.00;25.00;;;;;23.16;55.17;98747.28;6114132;28;96646;-62
2021/09/13 00:50:08;;;;;;;;;25.80;23.80;;;;;23.16;54.90;98742.59;6115140;28;96767;-62
2021/09/13 00:53:12;;;;;;;;;25.40;22.40;;;;;23.16;54.84;98739.84;6115078;28;97576;-61
2021/09/13 00:56:31;;;;;;;;;23.80;21.80;;;;;23.11;55.03;98737.19;6115358;28;96712;-62
2021/09/13 00:59:35;;;;;;;;;26.50;25.50;;;;;23.07;55.06;98740.84;6096872;28;97731;-63
2021/09/13 01:02:38;;;;;;;;;25.00;23.60;;;;;23.10;54.92;98740.25;6112477;28;97257;-63
2021/09/13 01:05:42;;;;;;;;;29.00;28.00;;;;;23.02;55.64;98736.25;6095357;28;97391;-63
2021/09/13 01:08:47;;;;;;;;;28.00;27.00;;;;;23.07;55.20;98733.41;6097935;28;98176;-62
2021/09/13 01:11:50;;;;;;;;;24.50;23.00;;;;;23.02;55.32;98739.00;6095445;28;97923;-61
2021/09/13 01:14:55;;;;;;;;;26.00;24.00;;;;;23.00;55.74;98734.97;6094015;28;97360;-63
2021/09/13 01:17:58;;;;;;;;;25.75;24.75;;;;;22.98;55.76;98731.69;6087705;28;96646;-62
2021/09/13 01:21:02;;;;;;;;;28.50;27.00;;;;;22.99;55.46;98734.13;6094494;28;96663;-62
2021/09/13 05:57:50;;;;;;;;;26.00;24.60;;;;;23.69;52.45;98819.06;6108218;28;97620;-61
2021/09/13 06:00:55;;;;;;;;;28.00;27.00;;;;;23.65;52.48;98813.34;6092953;28;97524;-61
2021/09/13 06:03:59;;;;;;;;;29.00;25.60;;;;;23.64;52.63;98816.44;6113530;28;97258;-61
2021/09/13 06:07:11;;;;;;;;;24.80;24.40;;;;;23.68;52.59;98815.50;6094825;28;96767;-61
2021/09/13 06:10:15;;;;;;;;;29.00;28.00;;;;;23.57;52.93;98818.78;6112611;28;97470;-60
2021/09/13 06:13:20;;;;;;;;;25.80;24.80;;;;;23.52;53.07;98827.13;6094288;28;98225;-61
2021/09/13 06:16:25;;;;;;;;;28.50;26.00;;;;;23.51;53.24;98820.00;6111852;28;97418;-61
2021/09/13 06:19:30;;;;;;;;;29.00;25.50;;;;;23.53;53.30;98832.34;6111112;28;96663;-61
2021/09/13 06:22:33;;;;;;;;;30.00;26.33;;;;;23.67;53.13;98822.13;6095760;28;98652;-61
2021/09/13 06:25:43;;;;;;;;;30.00;29.00;;;;;23.90;52.68;98827.66;6095554;28;96852;-61
2021/09/13 06:28:50;;;;;;;;;33.00;29.60;;;;;24.04;52.43;98818.22;6095819;28;96936;-61
2021/09/13 06:31:53;;;;;;;;;30.00;27.80;;;;;24.27;51.84;98826.56;6087625;28;97692;-61
2021/09/13 06:34:57;;;;;;;;;33.50;30.00;;;;;24.52;51.34;98815.72;6095033;28;97389;-60
2021/09/13 06:38:12;;;;;;;;;29.00;27.00;;;;;24.73;50.85;98820.72;6094426;28;97503;-60
2021/09/13 06:41:16;;;;;;;;;28.40;28.00;;;;;24.93;50.52;98822.94;6096048;28;97545;-62
2021/09/13 06:44:23;;;;;;;;;31.25;28.75;;;;;25.02;50.37;98827.34;6115407;28;97560;-61
2021/09/13 06:47:44;;;;;;;;;32.40;28.40;;;;;25.05;50.20;98830.63;6097682;28;96824;-61
2021/09/13 06:50:49;;;;;;;;;33.00;30.00;;;;;24.96;50.43;98825.06;6098683;28;97276;-61
2021/09/13 06:53:52;;;;;;;;;31.60;29.60;;;;;24.89;50.38;98831.03;6114686;28;98138;-62
2021/09/13 06:56:57;;;;;;;;;28.75;27.50;;;;;24.90;50.54;98840.13;6096328;28;97193;-61
2021/09/13 07:00:03;;;;;;;;;30.20;28.40;;;;;24.87;50.73;98838.84;6103192;28;97987;-61
2021/09/13 07:03:07;;;;;;;;;31.40;29.00;;;;;24.91;50.92;98837.06;6113110;28;97184;-59
2021/09/13 07:06:10;;;;;;;;;32.60;30.00;;;;;24.89;50.74;98841.25;6114684;28;97632;-61
2021/09/13 07:09:14;;;;;;;;;30.60;29.00;;;;;24.97;50.93;98840.50;6115282;28;97609;-59
2021/09/13 07:12:19;;;;;;;;;32.60;30.60;;;;;25.08;50.72;98844.59;6116075;28;97494;-61
2021/09/13 07:15:25;;;;;;;;;32.00;29.00;;;;;25.21;50.32;98843.69;6113837;28;97081;-60
2021/09/13 07:18:30;;;;;;;;;30.00;28.00;;;;;25.39;50.00;98848.13;6115083;28;97106;-61
2021/09/13 07:21:33;;;;;;;;;32.00;30.00;;;;;25.87;49.20;98853.63;6111276;28;97425;-60
2021/09/13 07:24:37;;;;;;;;;33.60;30.80;;;;;26.28;47.97;98846.88;6100532;28;96689;-59
2021/09/13 07:27:40;;;;;;;;;33.60;30.00;;;;;26.53;46.76;98857.09;6115365;28;97014;-61
2021/09/13 07:30:45;;;;;;;;;32.00;30.00;;;;;26.96;46.76;98857.03;6116247;28;97589;-61
2021/09/13 07:33:48;;;;;;;;;33.25;31.00;;;;;27.21;45.69;98857.28;6115475;28;96650;-61
2021/09/13 07:36:51;;;;;;;;;31.40;28.60;;;;;27.61;45.16;98860.56;6107524;28;97427;-61
2021/09/13 07:39:56;;;;;;;;;33.20;29.80;;;;;27.92;44.47;98864.56;6114774;28;97463;-61
2021/09/13 07:42:59;;;;;;;;;34.80;30.00;;;;;27.68;44.27;98861.63;6115540;28;96614;-62
2021/09/13 07:46:04;;;;;;;;;30.50;28.50;;;;;27.50;45.18;98862.88;6097648;28;97235;-60
2021/09/13 07:49:08;;;;;;;;;35.40;32.00;;;;;27.22;46.03;98861.69;6097550;28;97367;-62
2021/09/13 07:52:11;;;;;;;;;30.00;29.00;;;;;27.02;46.94;98860.44;6092116;28;96787;-61
2021/09/13 07:55:14;;;;;;;;;32.00;29.00;;;;;26.84;47.39;98872.66;6114931;28;97265;-61
2021/09/13 07:58:18;;;;;;;;;36.80;30.80;;;;;26.63;48.01;98867.78;6115029;28;97583;-60
2021/09/13 08:01:23;;;;;;;;;35.60;31.60;;;;;26.60;47.86;98864.88;6114273;28;96592;-60
2021/09/13 08:04:27;;;;;;;;;36.00;32.00;;;;;26.65;48.06;98878.53;6098662;28;97174;-61
2021/09/13 08:07:30;;;;;;;;;36.00;31.00;;;;;26.68;47.76;98875.13;6121014;28;96723;-61
2021/09/13 08:10:34;;;;;;;;;33.00;31.00;;;;;26.65;47.63;98857.22;6114698;28;97495;-60
2021/09/13 08:13:39;;;;;;;;;34.60;30.60;;;;;27.24;46.99;98874.03;6113528;28;97383;-62
2021/09/13 08:16:44;;;;;;;;;35.20;31.00;;;;;27.75;45.43;98873.00;6114395;28;97031;-60
2021/09/13 08:19:48;;;;;;;;;33.00;29.20;;;;;28.15;45.21;98880.94;6118960;28;97453;-62
2021/09/13 08:22:52;;;;;;;;;35.60;30.00;;;;;28.47;44.26;98879.34;6117704;28;97499;-62
2021/09/13 08:25:56;;;;;;;;;31.25;28.25;;;;;28.70;43.67;98886.97;6118019;28;97689;-62
2021/09/13 08:29:02;;;;;;;;;31.00;30.00;;;;;28.90;43.10;98885.31;6117263;28;100118;-62
2021/09/13 08:32:07;;;;;;;;;34.40;30.00;;;;;28.81;43.40;98895.72;6115152;28;96523;-60
2021/09/13 08:35:11;;;;;;;;;36.00;31.00;;;;;28.79;43.53;98889.69;6114670;28;96957;-61
2021/09/13 08:38:14;;;;;;;;;31.00;28.67;;;;;28.76;43.46;98899.50;6113013;28;97501;-61
2021/09/13 08:41:17;;;;;;;;;32.00;28.80;;;;;28.72;43.82;98897.75;6115016;28;97491;-60
2021/09/13 08:44:21;;;;;;;;;33.00;30.00;;;;;28.69;43.26;98898.38;6119356;28;97401;-62
2021/09/13 08:47:31;;;;;;;;;31.60;29.00;;;;;28.58;43.45;98903.56;6097778;28;97402;-62
2021/09/13 08:50:41;;;;;;;;;31.60;29.00;;;;;28.28;44.04;98897.28;6096126;28;97662;-61
2021/09/13 08:53:49;;;;;;;;;31.00;29.00;;;;;28.13;44.27;98897.06;6095984;28;97186;-61
2021/09/13 08:56:55;;;;;;;;;32.20;28.20;;;;;28.01;44.77;98903.31;6115298;28;96653;-61
2021/09/13 08:59:59;;;;;;;;;28.60;26.00;;;;;27.89;44.37;98904.06;6111623;28;97412;-62
2021/09/13 09:03:06;;;;;;;;;29.25;27.00;;;;;27.76;44.86;98907.06;6112825;28;99010;-62
2021/09/13 09:06:29;;;;;;;;;30.80;27.00;;;;;27.70;45.70;98900.91;6096449;28;97450;-62
2021/09/13 09:09:32;;;;;;;;;30.60;26.60;;;;;27.79;45.81;98900.84;6115496;28;97151;-63
2021/09/13 09:12:56;;;;;;;;;31.20;27.00;;;;;27.85;45.66;98897.56;6091291;28;97455;-62
2021/09/13 09:16:01;;;;;;;;;29.00;27.00;;;;;27.80;45.48;98906.06;6114008;28;97108;-60
2021/09/13 09:19:20;;;;;;;;;32.00;29.00;;;;;27.77;45.43;98900.34;6114597;28;97492;-61
2021/09/13 09:22:25;;;;;;;;;26.40;24.60;;;;;27.68;45.61;98902.38;6114190;28;97600;-62
2021/09/13 09:25:30;;;;;;;;;29.00;27.60;;;;;27.81;45.70;98913.22;6115232;28;97227;-60
2021/09/13 09:28:35;;;;;;;;;28.00;25.60;;;;;27.98;45.11;98901.22;6080972;28;98313;-60
2021/09/13 09:31:40;;;;;;;;;29.40;26.20;;;;;28.41;44.46;98907.28;6113984;28;98119;-60
2021/09/13 09:34:44;;;;;;;;;30.25;28.00;;;;;28.59;43.38;98904.38;6114163;28;97743;-63
2021/09/13 09:37:48;;;;;;;;;32.00;27.00;;;;;29.05;42.90;98906.06;6115242;28;96594;-60
2021/09/13 09:40:59;;;;;;;;;31.40;27.00;;;;;29.00;42.76;98892.41;6114188;28;97481;-60
2021/09/13 09:44:04;;;;;;;;;26.00;23.00;;;;;29.14;41.48;98902.03;6096756;28;96630;-60
2021/09/13 09:47:11;;;;;;;;;25.00;23.00;;;;;29.90;40.70;98895.09;6096744;28;96633;-62
2021/09/13 09:50:28;;;;;;;;;25.40;24.20;;;;;30.48;39.80;98888.97;6113562;28;97456;-62
2021/09/13 09:53:40;;;;;;;;;22.80;22.80;;;;;31.39;38.34;98891.88;6113444;28;97536;-61
2021/09/13 09:56:46;;;;;;;;;22.50;22.00;;;;;32.10;36.02;98883.31;6113547;28;97601;-62
2021/09/13 09:59:51;;;;;;;;;19.00;18.00;;;;;32.58;35.01;98892.31;6114120;28;97223;-61
2021/09/13 10:02:55;;;;;;;;;20.00;19.00;;;;;33.13;33.88;98893.84;6118835;28;97467;-60
2021/09/13 10:06:00;;;;;;;;;20.75;18.75;;;;;33.15;33.65;98887.84;6119951;28;96899;-61
2021/09/13 10:09:04;;;;;;;;;19.80;17.00;;;;;33.18;33.79;98893.56;6121059;28;97387;-60
2021/09/13 10:12:09;;;;;;;;;19.00;17.60;;;;;33.28;32.71;98886.56;6097054;28;97539;-61
2021/09/13 10:15:13;;;;;;;;;17.50;16.25;;;;;33.92;32.67;98877.22;6112107;28;97600;-61
2021/09/13 10:18:17;;;;;;;;;19.00;18.00;;;;;34.30;31.56;98879.03;6113000;28;96600;-62
2021/09/13 10:21:21;;;;;;;;;18.00;16.75;;;;;34.64;30.87;98880.66;6113174;28;97451;-61
2021/09/13 10:24:28;;;;;;;;;20.00;18.00;;;;;35.12;29.97;98878.00;6113549;28;96605;-60
2021/09/13 10:27:36;;;;;;;;;18.00;16.40;;;;;35.48;29.85;98867.97;6113196;28;96646;-61
2021/09/13 10:30:50;;;;;;;;;14.60;13.00;;;;;35.69;28.45;98865.34;6113265;28;96707;-62
2021/09/13 10:34:17;;;;;;;;;17.40;15.40;;;;;35.97;28.00;98861.94;6092576;28;96849;-62
2021/09/13 10:37:23;;;;;;;;;13.00;12.40;;;;;36.35;27.58;98867.00;6113012;28;97457;-62
2021/09/13 10:40:28;;;;;;;;;17.00;15.00;;;;;36.45;27.17;98863.44;6111757;28;97303;-61
2021/09/13 10:43:31;;;;;;;;;16.20;14.20;;;;;36.67;27.74;98863.53;6112946;28;97546;-62
2021/09/13 10:47:03;;;;;;;;;13.25;12.00;;;;;36.89;26.61;98853.97;6112542;28;96684;-62
2021/09/13 10:50:14;;;;;;;;;15.67;14.00;;;;;37.25;26.36;98854.84;6113697;28;97185;-61
2021/09/13 10:53:35;;;;;;;;;17.40;16.40;;;;;37.53;26.45;98866.16;6113667;28;96414;-62
2021/09/13 10:56:38;;;;;;;;;19.00;19.00;;;;;37.31;26.08;98854.06;6111951;28;97429;-60
2021/09/13 10:59:45;;;;;;;;;17.50;16.00;;;;;36.78;26.89;98850.34;6101387;28;97434;-61
2021/09/13 11:03:36;;;;;;;;;17.00;17.00;;;;;36.93;26.15;98843.56;6112961;28;96792;-61
2021/09/13 11:06:45;;;;;;;;;16.00;15.25;;;;;37.07;25.74;98839.94;6113806;28;96586;-61
2021/09/13 11:09:56;;;;;;;;;13.00;13.00;;;;;37.25;25.97;98840.78;6113969;28;98043;-60
2021/09/13 11:13:00;;;;;;;;;16.40;15.00;;;;;37.21;25.95;98840.81;6112341;28;96824;-60
2021/09/13 11:16:03;;;;;;;;;16.00;15.00;;;;;37.42;25.66;98845.63;6112354;28;97294;-61
2021/09/13 11:19:10;;;;;;;;;16.00;15.40;;;;;37.64;24.76;98840.81;6113153;28;97364;-60
2021/09/13 11:22:13;;;;;;;;;15.50;15.50;;;;;37.88;25.07;98839.97;6113887;28;96603;-60
2021/09/13 11:25:19;;;;;;;;;19.75;18.75;;;;;37.90;24.63;98839.59;6115186;28;97084;-61
2021/09/13 11:28:24;;;;;;;;;18.00;16.00;;;;;37.86;24.77;98839.59;6116633;28;97511;-61
2021/09/13 11:31:31;;;;;;;;;18.20;17.00;;;;;37.64;24.94;98833.19;6117572;28;97856;-60
2021/09/13 11:34:39;;;;;;;;;18.60;17.00;;;;;36.96;25.18;98837.13;6116398;28;97278;-61
2021/09/13 11:37:44;;;;;;;;;19.00;18.00;;;;;36.53;26.26;98832.56;6104347;28;97520;-61
2021/09/13 11:41:14;;;;;;;;;21.00;18.50;;;;;35.85;26.70;98823.78;6087691;28;96692;-61
2021/09/13 11:44:17;;;;;;;;;17.40;16.60;;;;;35.28;27.22;98830.94;6116407;28;98078;-61
2021/09/13 11:47:23;;;;;;;;;17.00;17.00;;;;;34.80;28.54;98821.63;6118094;28;97454;-62
2021/09/13 11:50:27;;;;;;;;;21.00;19.00;;;;;34.34;29.43;98821.09;6114898;28;96589;-59
2021/09/13 11:53:30;;;;;;;;;19.25;18.25;;;;;33.89;30.03;98814.47;6116305;28;97663;-60
2021/09/13 11:56:34;;;;;;;;;20.50;19.00;;;;;33.52;30.43;98816.28;6116841;28;97398;-59
2021/09/13 11:59:53;;;;;;;;;22.00;21.00;;;;;33.14;31.05;98830.38;6116061;28;97247;-61
2021/09/13 12:02:58;;;;;;;;;23.25;22.00;;;;;32.70;32.01;98821.56;6097551;28;96760;-61
2021/09/13 12:06:01;;;;;;;;;20.00;19.50;;;;;32.37;32.23;98811.75;6097617;28;97812;-61
2021/09/13 12:09:05;;;;;;;;;19.60;18.00;;;;;32.01;33.12;98815.72;6115866;28;97339;-62
2021/09/13 12:12:15;;;;;;;;;18.25;17.25;;;;;31.68;33.54;98804.22;6113184;28;97450;-62
2021/09/13 12:15:19;;;;;;;;;20.00;19.00;;;;;31.34;34.02;98814.97;6100593;28;97402;-60
2021/09/13 12:18:23;;;;;;;;;22.00;19.40;;;;;31.16;34.95;98807.34;6095476;28;97608;-61
2021/09/13 12:21:26;;;;;;;;;19.60;18.00;;;;;31.09;34.90;98805.16;6115111;28;97327;-61
2021/09/13 12:24:33;;;;;;;;;19.20;17.20;;;;;30.98;35.09;98801.28;6115881;28;96708;-60
2021/09/13 12:27:45;;;;;;;;;20.00;18.00;;;;;30.98;35.45;98806.88;6098859;28;97544;-61
2021/09/13 12:30:53;;;;;;;;;21.20;17.20;;;;;31.00;35.61;98810.06;6097644;28;98123;-59
2021/09/13 12:34:03;;;;;;;;;19.40;18.40;;;;;31.12;35.39;98807.25;6097261;28;97846;-60
2021/09/13 12:37:07;;;;;;;;;21.00;19.00;;;;;31.56;35.09;98816.31;6115487;28;97467;-61
2021/09/13 12:40:13;;;;;;;;;18.50;18.00;;;;;32.05;34.49;98808.28;6111701;28;97228;-62
2021/09/13 12:43:20;;;;;;;;;19.20;18.00;;;;;32.60;33.61;98814.59;6110919;28;96758;-60
2021/09/13 12:46:23;;;;;;;;;20.00;18.40;;;;;33.08;32.58;98805.56;6115063;28;96691;-62
2021/09/13 12:49:27;;;;;;;;;20.50;19.50;;;;;33.40;31.36;98806.13;6097673;28;97415;-61
2021/09/13 12:52:46;;;;;;;;;16.00;15.00;;;;;33.70;30.04;98794.22;6115759;28;97588;-60
2021/09/13 12:55:50;;;;;;;;;17.40;16.60;;;;;33.90;29.94;98801.31;6114706;28;97869;-61
2021/09/13 12:59:09;;;;;;;;;17.00;16.00;;;;;34.13;29.99;98795.59;6112360;28;96843;-60
2021/09/13 13:02:14;;;;;;;;;18.00;17.00;;;;;34.21;29.84;98784.13;6115092;28;97492;-61
2021/09/13 13:05:35;;;;;;;;;15.40;15.40;;;;;34.68;28.61;98794.72;6113509;28;97565;-60
2021/09/13 13:08:38;;;;;;;;;14.00;13.00;;;;;34.31;27.68;98797.47;6114979;28;97478;-59
2021/09/13 13:11:42;;;;;;;;;16.00;15.00;;;;;33.91;28.54;98792.53;6114930;28;96711;-61
2021/09/13 13:14:49;;;;;;;;;16.00;13.50;;;;;33.47;29.18;98800.66;6114760;28;97427;-61
2021/09/13 13:17:53;;;;;;;;;15.40;15.40;;;;;33.05;30.02;98800.69;6096710;28;96660;-62
2021/09/13 13:20:56;;;;;;;;;15.00;15.00;;;;;32.67;30.81;98784.88;6114472;28;97799;-61
2021/09/13 13:24:00;;;;;;;;;16.25;13.75;;;;;32.31;30.98;98788.09;6114048;28;97414;-61
2021/09/13 13:27:05;;;;;;;;;15.00;15.00;;;;;31.88;31.58;98788.34;6113869;28;97533;-60
2021/09/13 13:30:11;;;;;;;;;17.00;16.00;;;;;31.58;31.67;98786.09;6114109;28;97624;-62
2021/09/13 13:33:14;;;;;;;;;16.00;15.25;;;;;31.33;32.10;98782.69;6113899;28;96688;-61
2021/09/13 13:36:17;;;;;;;;;17.60;17.00;;;;;31.16;32.96;98782.28;6112932;28;96613;-61
2021/09/13 13:39:21;;;;;;;;;14.60;14.60;;;;;31.02;33.60;98785.50;6112377;28;97207;-60
2021/09/13 13:42:24;;;;;;;;;14.80;12.80;;;;;30.90;33.23;98791.13;6111690;28;96709;-62
2021/09/13 13:45:33;;;;;;;;;14.00;13.00;;;;;30.76;32.94;98785.19;6112757;28;97419;-62
2021/09/13 13:48:36;;;;;;;;;16.00;13.00;;;;;30.64;32.82;98788.06;6111450;28;97106;-61
2021/09/13 13:51:39;;;;;;;;;12.00;11.00;;;;;30.56;32.10;98787.03;6109925;28;97543;-60
2021/09/13 13:54:43;;;;;;;;;14.00;12.60;;;;;30.44;32.37;98789.88;6094160;28;97347;-61
2021/09/13 13:57:46;;;;;;;;;14.25;12.25;;;;;30.38;32.83;98794.06;6110813;28;99330;-61
2021/09/13 14:00:53;;;;;;;;;13.00;12.00;;;;;30.49;32.82;98786.84;6109377;28;97305;-60
2021/09/13 14:03:56;;;;;;;;;14.75;13.00;;;;;30.78;33.00;98792.03;6106893;28;97576;-60
2021/09/13 14:07:00;;;;;;;;;17.40;15.40;;;;;31.02;33.02;98785.50;6109128;28;97395;-61
2021/09/13 14:10:06;;;;;;;;;14.00;13.00;;;;;31.16;32.32;98782.28;6116735;28;96863;-59
2021/09/13 14:13:09;;;;;;;;;13.00;13.00;;;;;31.10;32.71;98795.66;6097608;28;96750;-61
2021/09/13 14:16:14;;;;;;;;;13.00;13.00;;;;;30.93;33.07;98794.03;6113800;28;97968;-61
2021/09/13 14:19:18;;;;;;;;;12.00;12.00;;;;;30.76;33.52;98791.56;6121457;28;97132;-59
2021/09/13 14:22:21;;;;;;;;;15.00;14.00;;;;;30.64;33.88;98785.28;6111111;28;96646;-61
2021/09/13 14:25:25;;;;;;;;;15.75;14.25;;;;;30.56;34.61;98784.25;6110434;28;97465;-61
2021/09/13 14:28:29;;;;;;;;;13.80;13.20;;;;;30.43;34.26;98791.84;6112288;28;97570;-61
2021/09/13 14:31:35;;;;;;;;;18.00;16.00;;;;;30.31;34.97;98791.88;6113220;28;96761;-61
2021/09/13 14:34:38;;;;;;;;;18.33;17.33;;;;;30.11;34.42;98790.09;6114181;28;97484;-61
2021/09/13 14:37:45;;;;;;;;;16.00;15.00;;;;;30.06;34.88;98795.91;6106899;28;97612;-59
2021/09/13 14:40:48;;;;;;;;;15.60;15.00;;;;;29.94;35.06;98798.72;6120329;28;98004;-61
2021/09/13 14:43:52;;;;;;;;;17.00;16.00;;;;;29.77;35.12;98796.19;6115798;28;96835;-59
2021/09/13 14:46:56;;;;;;;;;13.80;13.80;;;;;29.58;35.07;98807.91;6114950;28;97420;-61
2021/09/13 14:50:01;;;;;;;;;12.60;12.60;;;;;29.46;35.62;98814.31;6115730;28;98067;-61
2021/09/13 14:53:05;;;;;;;;;14.00;14.00;;;;;29.33;35.62;98811.84;6095233;28;97500;-61
2021/09/13 14:56:08;;;;;;;;;16.00;14.40;;;;;29.20;35.91;98809.06;6112661;28;97423;-60
2021/09/13 14:59:12;;;;;;;;;16.00;15.20;;;;;29.15;36.38;98822.34;6099316;28;97480;-60
2021/09/13 15:02:17;;;;;;;;;16.00;15.40;;;;;29.02;36.77;98818.75;6130149;28;97179;-61
2021/09/13 15:05:20;;;;;;;;;14.00;14.00;;;;;28.98;36.98;98825.34;6126870;28;96747;-61
2021/09/13 15:08:24;;;;;;;;;15.00;13.00;;;;;28.92;36.92;98841.41;6123231;28;96663;-60
2021/09/13 15:11:27;;;;;;;;;18.00;16.60;;;;;28.92;36.96;98838.63;6130946;28;97102;-61
2021/09/13 15:14:31;;;;;;;;;16.60;16.00;;;;;28.92;37.57;98824.75;6126228;28;96604;-59
2021/09/13 15:17:38;;;;;;;;;17.00;16.00;;;;;28.83;37.38;98827.59;6135262;28;97361;-59
2021/09/13 15:20:46;;;;;;;;;19.40;16.60;;;;;28.79;37.55;98828.63;6139845;28;97576;-60
2021/09/13 15:23:49;;;;;;;;;15.60;15.00;;;;;28.78;38.25;98836.16;6107966;28;97477;-61
2021/09/13 15:26:53;;;;;;;;;17.00;16.00;;;;;28.69;38.36;98829.84;6123092;28;96831;-61
2021/09/13 15:29:56;;;;;;;;;16.00;15.00;;;;;28.62;38.63;98834.34;6113611;28;97489;-61
2021/09/13 15:33:01;;;;;;;;;18.00;17.25;;;;;28.61;38.30;98830.75;6121588;28;97410;-63
2021/09/13 15:36:04;;;;;;;;;20.00;17.00;;;;;28.56;38.47;98839.28;6130059;28;96581;-61
2021/09/13 15:39:07;;;;;;;;;15.75;15.00;;;;;28.50;39.08;98843.41;6132692;28;96483;-61
2021/09/13 15:42:13;;;;;;;;;15.00;15.00;;;;;28.44;39.07;98834.50;6109698;28;98183;-62
2021/09/13 15:45:18;;;;;;;;;18.00;15.00;;;;;28.38;39.33;98829.53;6108511;28;96499;-61
2021/09/13 15:48:23;;;;;;;;;17.00;15.20;;;;;28.33;39.37;98832.50;6123373;28;98554;-61
2021/09/13 15:51:26;;;;;;;;;17.20;16.40;;;;;28.33;39.55;98838.03;6134638;28;96558;-62
2021/09/13 15:54:29;;;;;;;;;18.00;17.20;;;;;28.30;39.87;98844.25;6109563;28;97997;-60
2021/09/13 15:57:33;;;;;;;;;18.60;17.00;;;;;28.30;39.68;98845.06;6110165;28;96874;-62
2021/09/13 16:00:36;;;;;;;;;17.40;16.00;;;;;28.25;39.87;98839.72;6115417;28;96689;-62
2021/09/13 16:03:41;;;;;;;;;18.20;16.80;;;;;28.22;40.14;98837.66;6107463;28;99732;-60
2021/09/13 16:06:46;;;;;;;;;18.00;16.50;;;;;28.15;40.50;98831.81;6111913;28;96908;-60
2021/09/13 16:09:49;;;;;;;;;19.00;18.50;;;;;28.08;40.58;98830.72;6110662;28;96973;-62
2021/09/13 16:12:53;;;;;;;;;20.00;17.00;;;;;28.08;40.67;98834.31;6122005;28;96714;-62
2021/09/13 16:15:56;;;;;;;;;19.00;17.75;;;;;28.11;40.48;98841.13;6127049;28;96568;-61
2021/09/13 16:19:02;;;;;;;;;17.00;16.40;;;;;28.08;40.69;98831.53;6124171;28;97469;-61
2021/09/13 16:22:05;;;;;;;;;16.00;15.00;;;;;28.07;40.08;98835.44;6128064;28;97498;-62
2021/09/13 16:25:13;;;;;;;;;17.40;16.40;;;;;28.06;39.74;98833.00;6131357;28;97523;-62
2021/09/13 16:28:17;;;;;;;;;18.50;16.50;;;;;27.97;40.28;98824.75;6128917;28;96725;-62
2021/09/13 16:31:21;;;;;;;;;18.25;17.25;;;;;28.01;39.78;98840.38;6125425;28;97557;-60
2021/09/13 16:34:26;;;;;;;;;18.50;16.50;;;;;27.93;40.01;98834.91;6128316;28;97501;-60
2021/09/13 16:37:30;;;;;;;;;17.00;16.00;;;;;27.92;39.57;98836.06;6134324;28;97559;-63
2021/09/13 16:40:34;;;;;;;;;16.00;16.00;;;;;27.89;39.26;98840.31;6101287;28;97800;-63
2021/09/13 16:43:38;;;;;;;;;18.00;17.00;;;;;27.85;39.28;98835.78;6104226;28;97260;-62
2021/09/13 16:46:43;;;;;;;;;19.60;16.60;;;;;27.78;39.63;98841.03;6125383;28;98070;-64
2021/09/13 16:49:49;;;;;;;;;15.40;14.40;;;;;27.47;39.31;98805.34;6128139;28;97062;-63
2021/09/13 16:52:53;;;;;;;;;19.80;19.00;;;;;27.61;40.91;98835.63;6125086;28;96723;-63
2021/09/13 16:55:56;;;;;;;;;22.00;20.00;;;;;27.50;42.58;98840.72;6084879;28;97775;-63
2021/09/13 16:59:00;;;;;;;;;71.60;57.00;;;;;27.17;43.55;98821.16;6130516;28;97485;-60
2021/09/13 17:02:03;;;;;;;;;23.00;22.00;;;;;27.20;44.01;98850.13;6109867;28;97614;-61
2021/09/13 17:05:11;;;;;;;;;20.00;19.00;;;;;27.09;44.49;98847.72;6124478;28;96957;-60
2021/09/13 17:08:14;;;;;;;;;35.50;30.50;;;;;26.98;44.41;98843.66;6110781;28;97816;-60
2021/09/13 17:11:18;;;;;;;;;24.80;23.00;;;;;26.88;44.53;98854.31;6121288;28;97421;-61
2021/09/13 17:14:22;;;;;;;;;26.00;23.00;;;;;26.79;44.75;98851.50;6125680;28;97521;-62
2021/09/13 17:17:26;;;;;;;;;23.00;20.00;;;;;26.73;44.74;98847.31;6105729;28;97577;-61
2021/09/13 17:20:30;;;;;;;;;21.00;20.00;;;;;26.67;44.89;98851.38;6095385;28;96712;-61
2021/09/13 17:23:34;;;;;;;;;20.00;18.00;;;;;26.61;44.82;98855.44;6134568;28;97568;-61
2021/09/13 17:26:37;;;;;;;;;23.80;22.80;;;;;26.52;44.95;98860.19;6097484;28;97218;-60
2021/09/13 17:29:40;;;;;;;;;23.00;21.00;;;;;26.43;45.26;98862.97;6105078;28;96846;-61
2021/09/13 17:32:43;;;;;;;;;35.00;32.00;;;;;26.36;45.73;98873.69;6134036;28;97473;-62
2021/09/13 17:35:49;;;;;;;;;53.60;44.00;;;;;26.28;46.02;98863.44;6112138;28;96914;-63
2021/09/13 17:38:53;;;;;;;;;46.25;39.00;;;;;26.19;46.48;98868.91;6124653;28;97322;-63
2021/09/13 17:41:56;;;;;;;;;44.80;37.20;;;;;26.08;46.53;98867.63;6129476;28;97126;-60
2021/09/13 17:44:59;;;;;;;;;45.00;38.00;;;;;25.98;46.75;98867.94;6126010;28;97478;-60
2021/09/13 17:48:03;;;;;;;;;43.00;36.00;;;;;25.91;46.99;98883.34;6118479;28;97252;-61
2021/09/13 17:51:08;;;;;;;;;30.00;28.00;;;;;25.79;47.27;98881.25;6109419;28;97011;-61
2021/09/13 17:54:12;;;;;;;;;25.00;23.00;;;;;25.65;47.94;98886.09;6116240;28;97616;-62
2021/09/13 17:57:15;;;;;;;;;23.75;22.75;;;;;25.46;48.39;98884.34;6109740;28;97484;-60
2021/09/13 18:00:18;;;;;;;;;24.60;22.00;;;;;25.43;48.37;98887.75;6055623;28;97086;-61
2021/09/13 18:03:22;;;;;;;;;21.60;21.00;;;;;25.36;48.75;98881.09;6071538;28;97433;-63
2021/09/13 18:06:27;;;;;;;;;21.00;20.00;;;;;25.30;48.75;98891.44;6070675;28;97835;-62
2021/09/13 18:09:30;;;;;;;;;22.00;20.00;;;;;25.22;48.97;98896.91;6086702;28;97512;-62
2021/09/13 18:12:34;;;;;;;;;22.25;20.25;;;;;25.10;48.99;98902.22;6072342;28;98026;-62
2021/09/13 18:15:37;;;;;;;;;19.75;18.00;;;;;25.03;49.30;98910.94;6092692;28;96798;-61
2021/09/13 18:18:40;;;;;;;;;22.00;21.50;;;;;24.95;49.42;98908.94;6076007;28;97548;-61
2021/09/13 18:21:45;;;;;;;;;20.00;19.00;;;;;24.85;49.54;98898.13;6089547;28;97202;-64
2021/09/13 18:24:48;;;;;;;;;20.00;19.75;;;;;24.73;49.98;98904.22;6077525;28;97462;-62
2021/09/13 18:27:52;;;;;;;;;19.00;17.40;;;;;24.66;49.93;98900.28;6094909;28;97529;-63
2021/09/13 18:30:55;;;;;;;;;20.00;19.75;;;;;24.55;50.26;98905.22;6085180;28;97478;-64
2021/09/13 18:33:58;;;;;;;;;22.60;21.00;;;;;24.43;50.64;98905.81;6087381;28;97176;-63
2021/09/13 18:37:03;;;;;;;;;23.75;21.00;;;;;24.38;50.48;98903.16;6085079;28;97527;-63
2021/09/13 18:40:08;;;;;;;;;23.25;19.00;;;;;24.36;50.47;98904.59;6086752;28;97477;-62
2021/09/13 18:43:11;;;;;;;;;25.40;23.00;;;;;24.38;50.38;98905.09;6061130;28;97883;-64
2021/09/13 18:46:14;;;;;;;;;21.00;20.00;;;;;24.36;50.51;98913.66;6085961;28;96618;-61